Viento Desde: 14-11-2019 05:00 Hasta: 16:59 Advertencia para: Viento Nivel: Amarillo
Situación metereológica potencialmente peligrosa.
info button

Informes METAR

 

KSJC - San Jose, California, USA
Distancia de la estación: NE 14km
Actualización: 14/11/2019 01:53
Muy nuboso
Muy nuboso
 Viento de NNO
Viento: NNO 13 km/h
Temperatura: 15°C
Rocío: 11°C
Humedad: 77%
Barómetro: 1014.6 hPa
Nubes: Muy nuboso
Visibilidad: 14 km
Detalles de las nubes: Poco nuboso 30 m
Parcialmente nuboso 3658 m
Muy nuboso 6096 m
2019/11/14 00:53 KSJC 140053Z 33007KT 9SM FEW001 SCT120 BKN200 15/11 A2996 RMK AO2 SLP145 T01500106
KNUQ - Moffett Nas/Mtn, California, USA
Distancia de la estación: N 14km
Actualización: 14/11/2019 01:56

 
Barómetro: 1014.9 hPa
2019/11/14 00:56 KNUQ 140056Z A2997 RMK AO2 SLP153 PWINO $
 
KPAO - Palo Alto, California, USA
Distancia de la estación: NNO 23km
Actualización: 14/11/2019 00:47
NOT Current
Muy nuboso
Muy nuboso
 Viento de NNO
Viento: NNO 20 km/h
Temperatura: 15°C
Rocío: 12°C
Humedad: 82%
Barómetro: 1014.9 hPa
Nubes: Muy nuboso
Visibilidad: 14 km
Detalles de las nubes: Muy nuboso 3048 m
2019/11/13 23:47 KPAO 132347Z 33011KT 9SM BKN100 15/12 A2997
KRHV - San Jose/Reid, California, USA
Distancia de la estación: ENE 19km
Actualización: 14/11/2019 01:56
Calima, Muy nuboso
Calima, Muy nuboso
 Viento de ONO
Viento: ONO 11 km/h
Temperatura: 16°C
Rocío: 11°C
Humedad: 72%
Barómetro: 1014.6 hPa
Resumen: Calima
Nubes: Muy nuboso
Visibilidad: 10 km
Detalles de las nubes: Muy nuboso 2438 m
2019/11/14 00:56 KRHV 140056Z 29006KT 6SM HZ BKN080 16/11 A2996
 
KOAK - Oakland, California, USA
Distancia de la estación: NNO 50km
Actualización: 14/11/2019 01:53
Calima, Cubierto
Calima, Cubierto
 Viento de NO
Viento: NO 17 km/h
Temperatura: 13°C
Rocío: 10°C
Humedad: 82%
Barómetro: 1015.2 hPa
Resumen: Calima
Nubes: Cubierto
Visibilidad: 10 km
Detalles de las nubes: Poco nuboso 152 m
Parcialmente nuboso 5182 m
Cubierto 6096 m
2019/11/14 00:53 KOAK 140053Z 31009KT 6SM HZ FEW005 SCT170 OVC200 13/10 A2998 RMK AO2 SLP151 T01330100
KSQL - San Carlos Airpo, California, USA
Distancia de la estación: NO 34km
Actualización: 14/11/2019 01:47
Calima, Muy nuboso
Calima, Muy nuboso
 Viento de O
Viento: O 17 km/h
Temperatura: 14°C
Rocío: 10°C
Humedad: 77%
Barómetro: 1014.9 hPa
Resumen: Calima
Nubes: Muy nuboso
Visibilidad: 10 km
Detalles de las nubes: Muy nuboso 5486 m
2019/11/14 00:47 KSQL 140047Z 28009KT 6SM HZ BKN180 14/10 A2997
 
KSFO - San Francisco, California, USA
Distancia de la estación: NO 49km
Actualización: 14/11/2019 01:56
Muy nuboso
Muy nuboso
 Viento de ONO
Viento: ONO 20 km/h
Temperatura: 13°C
Rocío: 9°C
Humedad: 77%
Barómetro: 1014.9 hPa
Nubes: Muy nuboso
Visibilidad: 14 km
Detalles de las nubes: Poco nuboso 152 m
Muy nuboso 5486 m
Muy nuboso 6096 m
2019/11/14 00:56 KSFO 140056Z 29011KT 9SM FEW005 BKN180 BKN200 13/09 A2997 RMK AO2 SLP147 T01330094
KE16 - San Martin, California, USA
Distancia de la estación: ESE 43km
Actualización: 14/11/2019 02:15
Despejado
Despejado
 Viento de SSE
Viento: SSE 9 km/h
Temperatura: 14°C
Rocío: 9°C
Humedad: 72%
Barómetro: 1015.9 hPa
Nubes: Despejado
Visibilidad: 16 km
2019/11/14 01:15 KE16 140115Z AUTO 15005KT 10SM CLR 14/09 A3000 RMK AO2
 
KWVI - Watsonville, California, USA
Distancia de la estación: SSE 44km
Actualización: 14/11/2019 01:53
Cubierto
Cubierto
 Viento de O
Viento: O 9 km/h
Temperatura: 13°C
Rocío: 10°C
Humedad: 82%
Barómetro: 1016.3 hPa
Nubes: Cubierto
Visibilidad: 16 km
Detalles de las nubes: Cubierto 305 m
2019/11/14 00:53 KWVI 140053Z AUTO 28005KT 10SM OVC010 13/10 A3001 RMK AO2 SLP161 T01280100
KHAF - Half Moon Bay, California, USA
Distancia de la estación: ONO 50km
Actualización: 14/11/2019 02:20
Cubierto
Cubierto
 Viento de SSE
Viento: SSE 11 km/h
Temperatura: 12°C
Rocío: 10°C
Humedad: 88%
Barómetro: 1015.9 hPa
Nubes: Cubierto
Visibilidad: 13 km
Detalles de las nubes: Cubierto 244 m
2019/11/14 01:20 KHAF 140120Z AUTO 15006KT 8SM OVC008 12/10 A3000 RMK AO2
 
KHWD - Hayward, California, USA
Distancia de la estación: N 44km
Actualización: 14/11/2019 01:54
Calima, Despejado
Calima, Despejado
 Viento de ONO
Viento: ONO 15 km/h
Temperatura: 13°C
Rocío: 10°C
Humedad: 82%
Barómetro: 1014.9 hPa
Resumen: Calima
Nubes: Despejado
Visibilidad: 10 km
2019/11/14 00:54 KHWD 140054Z 30008KT 6SM HZ CLR 13/10 A2997 RMK AO2 SLP159 T01330100
KLVK - Livermore, California, USA
Distancia de la estación: NNE 51km
Actualización: 14/11/2019 01:53
Calima, Despejado
Calima, Despejado
 Viento de NO
Viento: NO 9 km/h
Temperatura: 18°C
Rocío: 10°C
Humedad: 60%
Barómetro: 1013.9 hPa
Resumen: Calima
Nubes: Despejado
Visibilidad: 10 km
2019/11/14 00:53 KLVK 140053Z 32005KT 6SM HZ CLR 18/10 A2994 RMK AO2 SLP136 T01780100